sensor_id;sensor_type;location;lat;lon;timestamp;temperature;humidity
13472;DHT22;6808;49.444;11.034;2023-06-26T00:02:13;21.00;94.00
13472;DHT22;6808;49.444;11.034;2023-06-26T00:04:39;21.00;94.50
13472;DHT22;6808;49.444;11.034;2023-06-26T00:07:05;21.00;93.90
13472;DHT22;6808;49.444;11.034;2023-06-26T00:09:31;21.00;94.00
13472;DHT22;6808;49.444;11.034;2023-06-26T00:11:57;21.00;93.70
13472;DHT22;6808;49.444;11.034;2023-06-26T00:14:22;21.00;93.90
13472;DHT22;6808;49.444;11.034;2023-06-26T00:16:48;20.90;93.70
13472;DHT22;6808;49.444;11.034;2023-06-26T00:19:16;20.70;94.50
13472;DHT22;6808;49.444;11.034;2023-06-26T00:21:42;20.80;94.40
13472;DHT22;6808;49.444;11.034;2023-06-26T00:24:14;20.70;94.80
13472;DHT22;6808;49.444;11.034;2023-06-26T00:26:40;20.70;94.70
13472;DHT22;6808;49.444;11.034;2023-06-26T00:29:05;20.70;94.60
13472;DHT22;6808;49.444;11.034;2023-06-26T00:31:31;20.60;94.40
13472;DHT22;6808;49.444;11.034;2023-06-26T00:33:57;20.60;94.60
13472;DHT22;6808;49.444;11.034;2023-06-26T00:36:22;20.60;94.60
13472;DHT22;6808;49.444;11.034;2023-06-26T00:38:52;20.60;94.70
13472;DHT22;6808;49.444;11.034;2023-06-26T00:41:18;20.60;95.10
13472;DHT22;6808;49.444;11.034;2023-06-26T00:43:43;20.60;95.10
13472;DHT22;6808;49.444;11.034;2023-06-26T00:46:11;20.50;94.40
13472;DHT22;6808;49.444;11.034;2023-06-26T00:48:38;20.50;94.60
13472;DHT22;6808;49.444;11.034;2023-06-26T00:51:04;20.40;94.10
13472;DHT22;6808;49.444;11.034;2023-06-26T00:53:31;20.40;94.30
13472;DHT22;6808;49.444;11.034;2023-06-26T00:55:57;20.40;94.20
13472;DHT22;6808;49.444;11.034;2023-06-26T00:58:24;20.40;94.10
13472;DHT22;6808;49.444;11.034;2023-06-26T01:00:53;20.40;94.90
13472;DHT22;6808;49.444;11.034;2023-06-26T01:03:28;20.30;94.30
13472;DHT22;6808;49.444;11.034;2023-06-26T01:05:55;20.40;95.00
13472;DHT22;6808;49.444;11.034;2023-06-26T01:08:22;20.30;95.20
13472;DHT22;6808;49.444;11.034;2023-06-26T01:10:48;20.30;95.40
13472;DHT22;6808;49.444;11.034;2023-06-26T01:13:15;20.30;95.40
13472;DHT22;6808;49.444;11.034;2023-06-26T01:15:41;20.20;95.70
13472;DHT22;6808;49.444;11.034;2023-06-26T01:18:07;20.30;95.60
13472;DHT22;6808;49.444;11.034;2023-06-26T01:20:36;20.20;95.90
13472;DHT22;6808;49.444;11.034;2023-06-26T01:25:38;20.10;96.10
13472;DHT22;6808;49.444;11.034;2023-06-26T01:28:05;20.10;96.10
13472;DHT22;6808;49.444;11.034;2023-06-26T01:30:32;20.10;96.20
13472;DHT22;6808;49.444;11.034;2023-06-26T01:32:59;20.00;96.20
13472;DHT22;6808;49.444;11.034;2023-06-26T01:35:25;20.00;96.30
13472;DHT22;6808;49.444;11.034;2023-06-26T01:37:51;19.90;96.10
13472;DHT22;6808;49.444;11.034;2023-06-26T01:40:17;19.90;96.30
13472;DHT22;6808;49.444;11.034;2023-06-26T01:42:43;19.90;96.30
13472;DHT22;6808;49.444;11.034;2023-06-26T01:45:26;19.80;96.30
13472;DHT22;6808;49.444;11.034;2023-06-26T01:47:52;19.80;96.40
13472;DHT22;6808;49.444;11.034;2023-06-26T01:50:22;19.70;96.40
13472;DHT22;6808;49.444;11.034;2023-06-26T01:52:58;19.70;96.50
13472;DHT22;6808;49.444;11.034;2023-06-26T01:55:47;19.70;96.40
13472;DHT22;6808;49.444;11.034;2023-06-26T01:58:13;19.70;96.10
13472;DHT22;6808;49.444;11.034;2023-06-26T02:00:40;19.60;96.40
13472;DHT22;6808;49.444;11.034;2023-06-26T02:03:05;19.60;95.90
13472;DHT22;6808;49.444;11.034;2023-06-26T02:05:32;19.60;95.90
13472;DHT22;6808;49.444;11.034;2023-06-26T02:07:57;19.60;96.30
13472;DHT22;6808;49.444;11.034;2023-06-26T02:10:23;19.60;96.30
13472;DHT22;6808;49.444;11.034;2023-06-26T02:12:49;19.50;95.80
13472;DHT22;6808;49.444;11.034;2023-06-26T02:15:14;19.50;95.50
13472;DHT22;6808;49.444;11.034;2023-06-26T02:17:40;19.50;95.30
13472;DHT22;6808;49.444;11.034;2023-06-26T02:20:06;19.40;95.00
13472;DHT22;6808;49.444;11.034;2023-06-26T02:22:33;19.40;95.10
13472;DHT22;6808;49.444;11.034;2023-06-26T02:24:58;19.40;95.70
13472;DHT22;6808;49.444;11.034;2023-06-26T02:27:24;19.40;95.50
13472;DHT22;6808;49.444;11.034;2023-06-26T02:29:49;19.40;95.80
13472;DHT22;6808;49.444;11.034;2023-06-26T02:32:15;19.40;96.10
13472;DHT22;6808;49.444;11.034;2023-06-26T02:34:40;19.30;95.80
13472;DHT22;6808;49.444;11.034;2023-06-26T02:37:06;19.30;95.90
13472;DHT22;6808;49.444;11.034;2023-06-26T02:39:33;19.20;96.00
13472;DHT22;6808;49.444;11.034;2023-06-26T02:41:59;19.20;96.00
13472;DHT22;6808;49.444;11.034;2023-06-26T02:44:24;19.20;96.10
13472;DHT22;6808;49.444;11.034;2023-06-26T02:46:50;19.90;96.60
13472;DHT22;6808;49.444;11.034;2023-06-26T02:49:15;19.10;96.40
13472;DHT22;6808;49.444;11.034;2023-06-26T02:51:41;19.10;96.00
13472;DHT22;6808;49.444;11.034;2023-06-26T02:54:06;19.00;95.90
13472;DHT22;6808;49.444;11.034;2023-06-26T02:56:32;19.00;96.50
13472;DHT22;6808;49.444;11.034;2023-06-26T02:58:58;19.00;96.50
13472;DHT22;6808;49.444;11.034;2023-06-26T03:01:23;19.00;96.50
13472;DHT22;6808;49.444;11.034;2023-06-26T03:03:49;18.90;96.50
13472;DHT22;6808;49.444;11.034;2023-06-26T03:06:15;18.80;97.00
13472;DHT22;6808;49.444;11.034;2023-06-26T03:08:41;18.70;97.40
13472;DHT22;6808;49.444;11.034;2023-06-26T03:11:10;18.60;97.00
13472;DHT22;6808;49.444;11.034;2023-06-26T03:13:36;18.40;97.20
13472;DHT22;6808;49.444;11.034;2023-06-26T03:16:03;18.30;97.30
13472;DHT22;6808;49.444;11.034;2023-06-26T03:18:29;19.50;98.30
13472;DHT22;6808;49.444;11.034;2023-06-26T03:20:58;18.40;97.30
13472;DHT22;6808;49.444;11.034;2023-06-26T03:23:25;18.30;97.40
13472;DHT22;6808;49.444;11.034;2023-06-26T03:25:50;18.20;97.60
13472;DHT22;6808;49.444;11.034;2023-06-26T03:28:16;18.20;97.60
13472;DHT22;6808;49.444;11.034;2023-06-26T03:30:42;18.30;97.50
13472;DHT22;6808;49.444;11.034;2023-06-26T03:33:07;18.20;97.40
13472;DHT22;6808;49.444;11.034;2023-06-26T03:35:33;18.20;97.60
13472;DHT22;6808;49.444;11.034;2023-06-26T03:37:59;18.20;97.50
13472;DHT22;6808;49.444;11.034;2023-06-26T03:40:26;18.20;97.60
13472;DHT22;6808;49.444;11.034;2023-06-26T03:42:51;18.10;97.50
13472;DHT22;6808;49.444;11.034;2023-06-26T03:45:17;18.20;97.60
13472;DHT22;6808;49.444;11.034;2023-06-26T03:47:44;18.20;97.60
13472;DHT22;6808;49.444;11.034;2023-06-26T03:50:09;18.20;97.50
13472;DHT22;6808;49.444;11.034;2023-06-26T03:52:35;18.10;97.50
13472;DHT22;6808;49.444;11.034;2023-06-26T03:55:00;18.20;97.60
13472;DHT22;6808;49.444;11.034;2023-06-26T03:57:26;18.10;97.50
13472;DHT22;6808;49.444;11.034;2023-06-26T03:59:52;18.20;97.70
13472;DHT22;6808;49.444;11.034;2023-06-26T04:02:18;18.10;97.90
13472;DHT22;6808;49.444;11.034;2023-06-26T04:04:44;18.10;97.60
13472;DHT22;6808;49.444;11.034;2023-06-26T04:07:10;18.10;97.60
13472;DHT22;6808;49.444;11.034;2023-06-26T04:09:35;18.10;97.50
13472;DHT22;6808;49.444;11.034;2023-06-26T04:12:02;18.00;97.70
13472;DHT22;6808;49.444;11.034;2023-06-26T04:14:27;18.00;97.60
13472;DHT22;6808;49.444;11.034;2023-06-26T04:16:53;18.00;97.40
13472;DHT22;6808;49.444;11.034;2023-06-26T04:19:19;18.00;97.30
13472;DHT22;6808;49.444;11.034;2023-06-26T04:21:45;18.10;97.40
13472;DHT22;6808;49.444;11.034;2023-06-26T04:24:10;18.00;97.40
13472;DHT22;6808;49.444;11.034;2023-06-26T04:26:36;18.00;97.40
13472;DHT22;6808;49.444;11.034;2023-06-26T04:29:02;18.20;97.50
13472;DHT22;6808;49.444;11.034;2023-06-26T04:31:28;18.40;97.70
13472;DHT22;6808;49.444;11.034;2023-06-26T04:33:54;18.50;96.80
13472;DHT22;6808;49.444;11.034;2023-06-26T04:36:20;18.60;96.50
13472;DHT22;6808;49.444;11.034;2023-06-26T04:38:46;18.80;96.30
13472;DHT22;6808;49.444;11.034;2023-06-26T04:41:13;19.10;96.20
13472;DHT22;6808;49.444;11.034;2023-06-26T04:43:39;19.30;95.90
13472;DHT22;6808;49.444;11.034;2023-06-26T04:46:05;19.30;95.30
13472;DHT22;6808;49.444;11.034;2023-06-26T04:48:31;19.50;95.50
13472;DHT22;6808;49.444;11.034;2023-06-26T04:50:57;19.50;95.00
13472;DHT22;6808;49.444;11.034;2023-06-26T04:53:24;19.70;94.90
13472;DHT22;6808;49.444;11.034;2023-06-26T04:55:51;19.90;94.30
13472;DHT22;6808;49.444;11.034;2023-06-26T04:58:16;20.00;93.80
13472;DHT22;6808;49.444;11.034;2023-06-26T05:00:42;20.10;93.70
13472;DHT22;6808;49.444;11.034;2023-06-26T05:03:12;20.30;94.30
13472;DHT22;6808;49.444;11.034;2023-06-26T05:05:38;20.50;93.20
13472;DHT22;6808;49.444;11.034;2023-06-26T05:08:17;20.60;93.20
13472;DHT22;6808;49.444;11.034;2023-06-26T05:10:44;20.80;93.70
13472;DHT22;6808;49.444;11.034;2023-06-26T05:13:09;20.80;92.30
13472;DHT22;6808;49.444;11.034;2023-06-26T05:15:35;20.70;92.90
13472;DHT22;6808;49.444;11.034;2023-06-26T05:18:01;20.70;92.90
13472;DHT22;6808;49.444;11.034;2023-06-26T05:20:26;20.70;92.60
13472;DHT22;6808;49.444;11.034;2023-06-26T05:22:52;20.70;92.30
13472;DHT22;6808;49.444;11.034;2023-06-26T05:25:18;20.50;92.10
13472;DHT22;6808;49.444;11.034;2023-06-26T05:27:47;20.60;92.20
13472;DHT22;6808;49.444;11.034;2023-06-26T05:30:13;20.60;91.90
13472;DHT22;6808;49.444;11.034;2023-06-26T05:32:40;20.60;92.10
13472;DHT22;6808;49.444;11.034;2023-06-26T05:35:06;20.70;91.70
13472;DHT22;6808;49.444;11.034;2023-06-26T05:37:33;20.80;91.80
13472;DHT22;6808;49.444;11.034;2023-06-26T05:39:59;20.80;91.60
13472;DHT22;6808;49.444;11.034;2023-06-26T05:42:26;20.80;91.80
13472;DHT22;6808;49.444;11.034;2023-06-26T05:44:53;20.90;92.40
13472;DHT22;6808;49.444;11.034;2023-06-26T05:47:18;21.00;92.00
13472;DHT22;6808;49.444;11.034;2023-06-26T05:49:44;21.00;91.90
13472;DHT22;6808;49.444;11.034;2023-06-26T05:52:10;21.20;91.60
13472;DHT22;6808;49.444;11.034;2023-06-26T05:54:36;21.30;90.80
13472;DHT22;6808;49.444;11.034;2023-06-26T05:57:03;21.50;91.00
13472;DHT22;6808;49.444;11.034;2023-06-26T05:59:31;21.80;90.20
13472;DHT22;6808;49.444;11.034;2023-06-26T06:01:57;22.00;90.50
13472;DHT22;6808;49.444;11.034;2023-06-26T06:04:22;22.00;90.50
13472;DHT22;6808;49.444;11.034;2023-06-26T06:06:48;22.20;88.20
13472;DHT22;6808;49.444;11.034;2023-06-26T06:09:14;22.30;89.30
13472;DHT22;6808;49.444;11.034;2023-06-26T06:11:40;22.50;87.20
13472;DHT22;6808;49.444;11.034;2023-06-26T06:14:06;22.80;86.10
13472;DHT22;6808;49.444;11.034;2023-06-26T06:16:31;23.00;86.90
13472;DHT22;6808;49.444;11.034;2023-06-26T06:18:57;23.30;86.90
13472;DHT22;6808;49.444;11.034;2023-06-26T06:21:22;23.70;82.20
13472;DHT22;6808;49.444;11.034;2023-06-26T06:23:48;23.80;81.10
13472;DHT22;6808;49.444;11.034;2023-06-26T06:26:13;24.20;80.90
13472;DHT22;6808;49.444;11.034;2023-06-26T06:28:39;24.10;77.70
13472;DHT22;6808;49.444;11.034;2023-06-26T06:31:05;24.20;79.20
13472;DHT22;6808;49.444;11.034;2023-06-26T06:33:30;24.30;77.30
13472;DHT22;6808;49.444;11.034;2023-06-26T06:35:56;24.60;80.30
13472;DHT22;6808;49.444;11.034;2023-06-26T06:38:22;24.60;79.00
13472;DHT22;6808;49.444;11.034;2023-06-26T06:40:47;24.60;77.50
13472;DHT22;6808;49.444;11.034;2023-06-26T06:43:13;24.80;76.30
13472;DHT22;6808;49.444;11.034;2023-06-26T06:45:38;24.90;76.80
13472;DHT22;6808;49.444;11.034;2023-06-26T06:48:04;25.00;73.20
13472;DHT22;6808;49.444;11.034;2023-06-26T06:50:30;25.20;71.40
13472;DHT22;6808;49.444;11.034;2023-06-26T06:52:56;25.40;74.80
13472;DHT22;6808;49.444;11.034;2023-06-26T06:55:22;25.60;70.80
13472;DHT22;6808;49.444;11.034;2023-06-26T06:57:48;25.60;70.00
13472;DHT22;6808;49.444;11.034;2023-06-26T07:00:14;25.90;68.50
13472;DHT22;6808;49.444;11.034;2023-06-26T07:02:42;25.90;67.10
13472;DHT22;6808;49.444;11.034;2023-06-26T07:05:09;26.20;66.20
13472;DHT22;6808;49.444;11.034;2023-06-26T07:07:36;26.30;69.10
13472;DHT22;6808;49.444;11.034;2023-06-26T07:10:12;26.30;68.00
13472;DHT22;6808;49.444;11.034;2023-06-26T07:12:38;26.40;65.40
13472;DHT22;6808;49.444;11.034;2023-06-26T07:15:05;26.60;68.10
13472;DHT22;6808;49.444;11.034;2023-06-26T07:17:34;26.50;68.30
13472;DHT22;6808;49.444;11.034;2023-06-26T07:20:01;26.60;63.20
13472;DHT22;6808;49.444;11.034;2023-06-26T07:22:29;26.70;64.20
13472;DHT22;6808;49.444;11.034;2023-06-26T07:24:55;26.70;62.60
13472;DHT22;6808;49.444;11.034;2023-06-26T07:27:20;26.90;61.90
13472;DHT22;6808;49.444;11.034;2023-06-26T07:29:46;27.20;60.30
13472;DHT22;6808;49.444;11.034;2023-06-26T07:32:11;27.50;60.80
13472;DHT22;6808;49.444;11.034;2023-06-26T07:34:37;27.70;59.20
13472;DHT22;6808;49.444;11.034;2023-06-26T07:37:03;27.80;58.10
13472;DHT22;6808;49.444;11.034;2023-06-26T07:39:29;28.00;58.50
13472;DHT22;6808;49.444;11.034;2023-06-26T07:41:54;28.20;57.40
13472;DHT22;6808;49.444;11.034;2023-06-26T07:44:21;28.50;57.20
13472;DHT22;6808;49.444;11.034;2023-06-26T07:46:47;28.20;56.70
13472;DHT22;6808;49.444;11.034;2023-06-26T07:49:13;28.70;63.50
13472;DHT22;6808;49.444;11.034;2023-06-26T07:51:38;28.80;56.50
13472;DHT22;6808;49.444;11.034;2023-06-26T07:54:04;29.00;56.60
13472;DHT22;6808;49.444;11.034;2023-06-26T07:56:29;29.00;56.60
13472;DHT22;6808;49.444;11.034;2023-06-26T07:58:55;29.20;55.60
13472;DHT22;6808;49.444;11.034;2023-06-26T08:01:23;29.20;57.40
13472;DHT22;6808;49.444;11.034;2023-06-26T08:03:48;29.10;59.20
13472;DHT22;6808;49.444;11.034;2023-06-26T08:06:14;29.40;55.40
13472;DHT22;6808;49.444;11.034;2023-06-26T08:08:40;29.50;59.60
13472;DHT22;6808;49.444;11.034;2023-06-26T08:11:06;29.60;54.90
13472;DHT22;6808;49.444;11.034;2023-06-26T08:13:31;29.80;54.10
13472;DHT22;6808;49.444;11.034;2023-06-26T08:15:57;29.80;53.00
13472;DHT22;6808;49.444;11.034;2023-06-26T08:18:22;29.70;52.90
13472;DHT22;6808;49.444;11.034;2023-06-26T08:20:48;29.80;66.40
13472;DHT22;6808;49.444;11.034;2023-06-26T08:23:13;29.90;54.70
13472;DHT22;6808;49.444;11.034;2023-06-26T08:25:39;29.80;53.70
13472;DHT22;6808;49.444;11.034;2023-06-26T08:28:04;29.90;53.40
13472;DHT22;6808;49.444;11.034;2023-06-26T08:30:31;30.10;53.60
13472;DHT22;6808;49.444;11.034;2023-06-26T08:32:57;30.20;55.00
13472;DHT22;6808;49.444;11.034;2023-06-26T08:35:22;30.40;55.70
13472;DHT22;6808;49.444;11.034;2023-06-26T08:37:48;30.40;54.20
13472;DHT22;6808;49.444;11.034;2023-06-26T08:40:17;30.20;51.60
13472;DHT22;6808;49.444;11.034;2023-06-26T08:42:43;30.20;56.90
13472;DHT22;6808;49.444;11.034;2023-06-26T08:45:08;30.00;56.00
13472;DHT22;6808;49.444;11.034;2023-06-26T08:47:35;30.20;55.70
13472;DHT22;6808;49.444;11.034;2023-06-26T08:50:13;30.20;55.30
13472;DHT22;6808;49.444;11.034;2023-06-26T08:55:19;29.90;61.20
13472;DHT22;6808;49.444;11.034;2023-06-26T08:57:47;29.90;60.50
13472;DHT22;6808;49.444;11.034;2023-06-26T09:00:13;29.80;55.00
13472;DHT22;6808;49.444;11.034;2023-06-26T09:02:40;29.70;57.00
13472;DHT22;6808;49.444;11.034;2023-06-26T09:05:06;29.60;57.10
13472;DHT22;6808;49.444;11.034;2023-06-26T09:07:32;29.70;61.90
13472;DHT22;6808;49.444;11.034;2023-06-26T09:09:58;29.80;55.10
13472;DHT22;6808;49.444;11.034;2023-06-26T09:12:27;28.90;55.00
13472;DHT22;6808;49.444;11.034;2023-06-26T09:14:54;29.70;58.80
13472;DHT22;6808;49.444;11.034;2023-06-26T09:17:24;29.70;57.50
13472;DHT22;6808;49.444;11.034;2023-06-26T09:19:51;29.60;58.60
13472;DHT22;6808;49.444;11.034;2023-06-26T09:22:16;29.60;57.80
13472;DHT22;6808;49.444;11.034;2023-06-26T09:24:43;29.60;54.60
13472;DHT22;6808;49.444;11.034;2023-06-26T09:27:09;29.80;61.20
13472;DHT22;6808;49.444;11.034;2023-06-26T09:29:35;29.80;59.30
13472;DHT22;6808;49.444;11.034;2023-06-26T09:32:00;29.90;68.20
13472;DHT22;6808;49.444;11.034;2023-06-26T09:34:33;29.90;67.80
13472;DHT22;6808;49.444;11.034;2023-06-26T09:36:59;29.90;55.20
13472;DHT22;6808;49.444;11.034;2023-06-26T09:39:30;30.00;57.60
13472;DHT22;6808;49.444;11.034;2023-06-26T09:41:56;30.00;61.30
13472;DHT22;6808;49.444;11.034;2023-06-26T09:44:22;29.90;56.80
13472;DHT22;6808;49.444;11.034;2023-06-26T09:46:48;29.90;57.90
13472;DHT22;6808;49.444;11.034;2023-06-26T09:49:14;30.10;78.00
13472;DHT22;6808;49.444;11.034;2023-06-26T09:51:41;30.10;58.30
13472;DHT22;6808;49.444;11.034;2023-06-26T09:54:08;30.20;60.40
13472;DHT22;6808;49.444;11.034;2023-06-26T09:56:34;30.10;58.50
13472;DHT22;6808;49.444;11.034;2023-06-26T09:59:02;30.10;54.70
13472;DHT22;6808;49.444;11.034;2023-06-26T10:01:28;30.30;58.90
13472;DHT22;6808;49.444;11.034;2023-06-26T10:03:54;30.40;55.10
13472;DHT22;6808;49.444;11.034;2023-06-26T10:06:33;30.50;56.40
13472;DHT22;6808;49.444;11.034;2023-06-26T10:09:01;30.50;50.50
13472;DHT22;6808;49.444;11.034;2023-06-26T10:11:35;30.60;50.80
13472;DHT22;6808;49.444;11.034;2023-06-26T10:14:03;30.60;57.10
13472;DHT22;6808;49.444;11.034;2023-06-26T10:16:31;30.70;57.30
13472;DHT22;6808;49.444;11.034;2023-06-26T10:19:02;30.70;53.60
13472;DHT22;6808;49.444;11.034;2023-06-26T10:21:29;30.70;57.70
13472;DHT22;6808;49.444;11.034;2023-06-26T10:23:57;30.70;56.50
13472;DHT22;6808;49.444;11.034;2023-06-26T10:26:24;30.80;54.20
13472;DHT22;6808;49.444;11.034;2023-06-26T10:28:52;30.70;52.50
13472;DHT22;6808;49.444;11.034;2023-06-26T10:31:25;30.90;52.50
13472;DHT22;6808;49.444;11.034;2023-06-26T10:33:52;30.90;54.30
13472;DHT22;6808;49.444;11.034;2023-06-26T10:36:19;30.90;52.50
13472;DHT22;6808;49.444;11.034;2023-06-26T10:41:20;31.00;52.80
13472;DHT22;6808;49.444;11.034;2023-06-26T10:43:49;31.00;51.80
13472;DHT22;6808;49.444;11.034;2023-06-26T10:46:15;31.00;53.10
13472;DHT22;6808;49.444;11.034;2023-06-26T10:48:59;31.10;55.90
13472;DHT22;6808;49.444;11.034;2023-06-26T10:51:26;31.30;54.80
13472;DHT22;6808;49.444;11.034;2023-06-26T10:53:56;31.30;46.70
13472;DHT22;6808;49.444;11.034;2023-06-26T10:56:41;31.30;51.70
13472;DHT22;6808;49.444;11.034;2023-06-26T10:59:14;31.40;51.90
13472;DHT22;6808;49.444;11.034;2023-06-26T11:01:41;31.40;47.20
13472;DHT22;6808;49.444;11.034;2023-06-26T11:04:09;31.50;50.60
13472;DHT22;6808;49.444;11.034;2023-06-26T11:06:37;31.50;51.90
13472;DHT22;6808;49.444;11.034;2023-06-26T11:09:08;31.60;50.50
13472;DHT22;6808;49.444;11.034;2023-06-26T11:14:31;31.90;50.60
13472;DHT22;6808;49.444;11.034;2023-06-26T11:16:57;31.90;51.10
13472;DHT22;6808;49.444;11.034;2023-06-26T11:19:26;31.90;49.40
13472;DHT22;6808;49.444;11.034;2023-06-26T11:21:58;31.90;48.50
13472;DHT22;6808;49.444;11.034;2023-06-26T11:24:24;31.90;50.40
13472;DHT22;6808;49.444;11.034;2023-06-26T11:26:50;31.90;47.00
13472;DHT22;6808;49.444;11.034;2023-06-26T11:29:15;31.80;51.20
13472;DHT22;6808;49.444;11.034;2023-06-26T11:31:41;31.80;46.20
13472;DHT22;6808;49.444;11.034;2023-06-26T11:34:11;31.90;47.40
13472;DHT22;6808;49.444;11.034;2023-06-26T11:36:41;32.00;47.90
13472;DHT22;6808;49.444;11.034;2023-06-26T11:39:08;32.00;47.10
13472;DHT22;6808;49.444;11.034;2023-06-26T11:41:38;32.10;48.80
13472;DHT22;6808;49.444;11.034;2023-06-26T11:44:08;32.10;47.60
13472;DHT22;6808;49.444;11.034;2023-06-26T11:46:35;32.10;50.50
13472;DHT22;6808;49.444;11.034;2023-06-26T11:49:07;32.10;45.50
13472;DHT22;6808;49.444;11.034;2023-06-26T11:51:33;32.10;46.70
13472;DHT22;6808;49.444;11.034;2023-06-26T11:54:01;32.10;45.20
13472;DHT22;6808;49.444;11.034;2023-06-26T11:56:30;32.20;45.10
13472;DHT22;6808;49.444;11.034;2023-06-26T12:01:23;32.20;44.00
13472;DHT22;6808;49.444;11.034;2023-06-26T12:03:50;32.40;45.80
13472;DHT22;6808;49.444;11.034;2023-06-26T12:06:16;32.40;46.30
13472;DHT22;6808;49.444;11.034;2023-06-26T12:08:42;32.50;47.60
13472;DHT22;6808;49.444;11.034;2023-06-26T12:11:08;32.50;47.70
13472;DHT22;6808;49.444;11.034;2023-06-26T12:13:34;32.60;45.20
13472;DHT22;6808;49.444;11.034;2023-06-26T12:16:00;32.70;46.00
13472;DHT22;6808;49.444;11.034;2023-06-26T12:18:26;32.70;46.70
13472;DHT22;6808;49.444;11.034;2023-06-26T12:20:58;32.70;44.90
13472;DHT22;6808;49.444;11.034;2023-06-26T12:23:23;32.80;43.70
13472;DHT22;6808;49.444;11.034;2023-06-26T12:25:49;32.80;43.80
13472;DHT22;6808;49.444;11.034;2023-06-26T12:28:18;32.80;44.60
13472;DHT22;6808;49.444;11.034;2023-06-26T12:30:47;32.80;47.30
13472;DHT22;6808;49.444;11.034;2023-06-26T12:33:14;32.80;45.20
13472;DHT22;6808;49.444;11.034;2023-06-26T12:35:40;32.80;43.90
13472;DHT22;6808;49.444;11.034;2023-06-26T12:38:07;32.80;44.30
13472;DHT22;6808;49.444;11.034;2023-06-26T12:40:35;32.80;43.40
13472;DHT22;6808;49.444;11.034;2023-06-26T12:43:11;32.70;42.60
13472;DHT22;6808;49.444;11.034;2023-06-26T12:45:41;32.60;49.30
13472;DHT22;6808;49.444;11.034;2023-06-26T12:48:08;32.80;47.00
13472;DHT22;6808;49.444;11.034;2023-06-26T12:50:43;32.90;45.20
13472;DHT22;6808;49.444;11.034;2023-06-26T12:53:09;33.10;45.40
13472;DHT22;6808;49.444;11.034;2023-06-26T12:55:36;33.10;45.60
13472;DHT22;6808;49.444;11.034;2023-06-26T12:58:02;33.10;44.70
13472;DHT22;6808;49.444;11.034;2023-06-26T13:00:27;33.20;44.80
13472;DHT22;6808;49.444;11.034;2023-06-26T13:02:53;33.10;43.30
13472;DHT22;6808;49.444;11.034;2023-06-26T13:05:18;32.80;43.20
13472;DHT22;6808;49.444;11.034;2023-06-26T13:07:44;32.80;44.50
13472;DHT22;6808;49.444;11.034;2023-06-26T13:10:10;32.90;46.30
13472;DHT22;6808;49.444;11.034;2023-06-26T13:12:35;32.90;44.40
13472;DHT22;6808;49.444;11.034;2023-06-26T13:15:01;33.10;44.70
13472;DHT22;6808;49.444;11.034;2023-06-26T13:17:26;33.20;45.20
13472;DHT22;6808;49.444;11.034;2023-06-26T13:19:52;33.30;45.60
13472;DHT22;6808;49.444;11.034;2023-06-26T13:22:17;33.30;45.10
13472;DHT22;6808;49.444;11.034;2023-06-26T13:24:43;33.20;46.60
13472;DHT22;6808;49.444;11.034;2023-06-26T13:27:09;33.30;44.00
13472;DHT22;6808;49.444;11.034;2023-06-26T13:29:34;33.30;44.40
13472;DHT22;6808;49.444;11.034;2023-06-26T13:32:00;33.30;44.40
13472;DHT22;6808;49.444;11.034;2023-06-26T13:34:27;33.20;43.30
13472;DHT22;6808;49.444;11.034;2023-06-26T13:36:53;32.90;43.60
13472;DHT22;6808;49.444;11.034;2023-06-26T13:39:19;32.50;44.30
13472;DHT22;6808;49.444;11.034;2023-06-26T13:41:45;32.30;44.80
13472;DHT22;6808;49.444;11.034;2023-06-26T13:44:11;32.00;45.40
13472;DHT22;6808;49.444;11.034;2023-06-26T13:46:37;31.90;46.20
13472;DHT22;6808;49.444;11.034;2023-06-26T13:49:02;32.10;46.20
13472;DHT22;6808;49.444;11.034;2023-06-26T13:51:28;32.20;46.40
13472;DHT22;6808;49.444;11.034;2023-06-26T13:53:53;32.30;48.50
13472;DHT22;6808;49.444;11.034;2023-06-26T13:56:20;32.30;47.20
13472;DHT22;6808;49.444;11.034;2023-06-26T13:58:48;32.40;46.40
13472;DHT22;6808;49.444;11.034;2023-06-26T14:01:13;32.40;48.20
13472;DHT22;6808;49.444;11.034;2023-06-26T14:03:39;32.40;46.20
13472;DHT22;6808;49.444;11.034;2023-06-26T14:06:04;32.30;47.30
13472;DHT22;6808;49.444;11.034;2023-06-26T14:08:30;32.30;47.00
13472;DHT22;6808;49.444;11.034;2023-06-26T14:10:55;32.40;47.80
13472;DHT22;6808;49.444;11.034;2023-06-26T14:13:21;32.40;46.70
13472;DHT22;6808;49.444;11.034;2023-06-26T14:15:47;32.30;46.90
13472;DHT22;6808;49.444;11.034;2023-06-26T14:18:12;32.10;47.00
13472;DHT22;6808;49.444;11.034;2023-06-26T14:20:38;32.10;46.80
13472;DHT22;6808;49.444;11.034;2023-06-26T14:23:05;32.10;46.30
13472;DHT22;6808;49.444;11.034;2023-06-26T14:25:30;32.10;48.00
13472;DHT22;6808;49.444;11.034;2023-06-26T14:27:57;32.10;47.60
13472;DHT22;6808;49.444;11.034;2023-06-26T14:30:23;32.10;47.30
13472;DHT22;6808;49.444;11.034;2023-06-26T14:32:48;32.10;47.80
13472;DHT22;6808;49.444;11.034;2023-06-26T14:35:14;32.20;46.80
13472;DHT22;6808;49.444;11.034;2023-06-26T14:37:39;32.20;48.40
13472;DHT22;6808;49.444;11.034;2023-06-26T14:40:07;32.20;48.30
13472;DHT22;6808;49.444;11.034;2023-06-26T14:42:33;32.20;48.50
13472;DHT22;6808;49.444;11.034;2023-06-26T14:44:59;32.20;47.70
13472;DHT22;6808;49.444;11.034;2023-06-26T14:47:24;32.20;47.20
13472;DHT22;6808;49.444;11.034;2023-06-26T14:49:50;32.20;46.50
13472;DHT22;6808;49.444;11.034;2023-06-26T14:52:15;32.20;47.30
13472;DHT22;6808;49.444;11.034;2023-06-26T14:54:41;32.20;47.60
13472;DHT22;6808;49.444;11.034;2023-06-26T14:57:07;32.20;48.60
13472;DHT22;6808;49.444;11.034;2023-06-26T14:59:33;32.10;47.50
13472;DHT22;6808;49.444;11.034;2023-06-26T15:01:58;32.10;47.80
13472;DHT22;6808;49.444;11.034;2023-06-26T15:04:24;31.90;47.90
13472;DHT22;6808;49.444;11.034;2023-06-26T15:06:50;31.80;47.40
13472;DHT22;6808;49.444;11.034;2023-06-26T15:09:15;31.80;48.20
13472;DHT22;6808;49.444;11.034;2023-06-26T15:11:41;31.80;48.70
13472;DHT22;6808;49.444;11.034;2023-06-26T15:14:06;31.60;48.60
13472;DHT22;6808;49.444;11.034;2023-06-26T15:16:32;31.50;49.50
13472;DHT22;6808;49.444;11.034;2023-06-26T15:18:58;31.40;50.10
13472;DHT22;6808;49.444;11.034;2023-06-26T15:21:24;31.40;50.80
13472;DHT22;6808;49.444;11.034;2023-06-26T15:23:50;31.50;50.80
13472;DHT22;6808;49.444;11.034;2023-06-26T15:26:15;31.40;51.40
13472;DHT22;6808;49.444;11.034;2023-06-26T15:28:41;31.30;52.20
13472;DHT22;6808;49.444;11.034;2023-06-26T15:31:07;31.30;52.60
13472;DHT22;6808;49.444;11.034;2023-06-26T15:33:32;30.90;53.50
13472;DHT22;6808;49.444;11.034;2023-06-26T15:35:58;30.90;53.20
13472;DHT22;6808;49.444;11.034;2023-06-26T15:38:23;30.90;54.60
13472;DHT22;6808;49.444;11.034;2023-06-26T15:40:49;30.90;53.90